Time;durP1;ratioP1;P1;durP2;ratioP2;P2;SDS_P1;SDS_P2;PMS_P1;PMS_P2;Temp;Humidity;BMP_temperature;BMP_pressure;BME280_temperature;BME280_humidity;BME280_pressure;Samples;Min_cycle;Max_cycle;Signal;HPM_P1;HPM_P2
2021/09/08 00:00:50;;;;;;;18.48;11.85;;;;;;;17.61;75.14;100840.59;4986158;28;20052;-81
2021/09/08 00:03:18;;;;;;;17.05;11.52;;;;;;;17.59;75.08;100841.66;5021836;28;20069;-80
2021/09/08 00:05:45;;;;;;;17.27;12.35;;;;;;;17.57;75.33;100847.13;5005810;28;20058;-80
2021/09/08 00:08:12;;;;;;;17.42;11.80;;;;;;;17.55;75.10;100838.31;5017499;28;20117;-80
2021/09/08 00:10:38;;;;;;;16.27;11.70;;;;;;;17.52;75.33;100833.19;5020321;28;20042;-80
2021/09/08 00:13:05;;;;;;;16.50;11.43;;;;;;;17.50;75.72;100835.97;5019321;28;20046;-79
2021/09/08 00:15:32;;;;;;;16.58;11.68;;;;;;;17.49;75.89;100836.06;5013815;28;20042;-80
2021/09/08 00:17:59;;;;;;;18.45;12.23;;;;;;;17.46;75.88;100837.16;5018868;28;20134;-81
2021/09/08 00:20:25;;;;;;;16.27;12.30;;;;;;;17.39;75.96;100837.66;5020403;28;20046;-80
2021/09/08 00:22:52;;;;;;;18.95;11.60;;;;;;;17.34;76.66;100839.78;5017879;28;20056;-80
2021/09/08 00:25:20;;;;;;;18.40;11.73;;;;;;;17.30;76.93;100832.94;5022791;28;20056;-81
2021/09/08 00:27:46;;;;;;;18.08;12.27;;;;;;;17.28;76.79;100835.72;5020106;28;20046;-81
2021/09/08 00:30:13;;;;;;;22.17;12.80;;;;;;;17.27;76.39;100825.97;5013468;28;20050;-81
2021/09/08 00:32:41;;;;;;;17.95;13.00;;;;;;;17.26;76.90;100831.44;5025587;28;20137;-81
2021/09/08 00:35:09;;;;;;;16.08;12.35;;;;;;;17.23;76.77;100820.94;5014270;28;20053;-81
2021/09/08 00:37:38;;;;;;;17.27;12.05;;;;;;;17.18;76.76;100811.38;5013683;28;20031;-81
2021/09/08 00:40:07;;;;;;;15.45;11.55;;;;;;;17.15;77.02;100819.66;5020416;28;20064;-81
2021/09/08 00:42:34;;;;;;;19.08;13.00;;;;;;;17.14;77.37;100817.94;4998717;28;20054;-81
2021/09/08 00:45:00;;;;;;;18.25;12.30;;;;;;;17.14;77.50;100820.59;5010176;28;20140;-80
2021/09/08 00:47:29;;;;;;;18.83;12.73;;;;;;;17.10;77.17;100827.13;5021195;28;20113;-80
2021/09/08 00:49:56;;;;;;;19.70;13.32;;;;;;;17.06;77.54;100816.72;5020667;28;20121;-80
2021/09/08 00:52:23;;;;;;;18.00;12.63;;;;;;;17.08;77.43;100826.34;5021713;28;20049;-80
2021/09/08 00:54:50;;;;;;;18.05;12.43;;;;;;;17.08;77.58;100823.69;5024702;28;20471;-79
2021/09/08 00:57:21;;;;;;;17.23;12.73;;;;;;;17.08;77.54;100822.81;5021172;28;20061;-80
2021/09/08 00:59:49;;;;;;;16.40;11.27;;;;;;;17.06;77.22;100812.22;5028774;28;20055;-80
2021/09/08 01:02:16;;;;;;;17.48;12.02;;;;;;;17.07;77.65;100815.75;5012771;28;20061;-80
2021/09/08 01:04:45;;;;;;;16.52;12.23;;;;;;;17.06;77.54;100822.94;5021950;28;20050;-81
2021/09/08 01:07:12;;;;;;;23.52;13.10;;;;;;;16.99;77.78;100810.94;5032583;28;20038;-81
2021/09/08 01:09:40;;;;;;;18.63;12.95;;;;;;;17.00;77.61;100811.78;5038471;28;20061;-80
2021/09/08 01:12:07;;;;;;;17.30;12.18;;;;;;;16.98;77.72;100811.03;5037586;28;20030;-80
2021/09/08 01:14:34;;;;;;;16.70;11.85;;;;;;;16.94;77.98;100806.84;5041916;28;20117;-80
2021/09/08 01:17:01;;;;;;;20.23;13.15;;;;;;;16.91;78.17;100802.56;5039796;28;20104;-80
2021/09/08 01:19:29;;;;;;;15.50;11.48;;;;;;;16.91;78.37;100804.38;5024761;28;20084;-80
2021/09/08 01:21:56;;;;;;;16.20;12.02;;;;;;;16.89;77.90;100807.13;5002444;28;20046;-79
2021/09/08 01:24:23;;;;;;;19.05;12.27;;;;;;;16.88;78.14;100805.41;5019157;28;20057;-80
2021/09/08 01:26:56;;;;;;;16.23;11.80;;;;;;;16.82;78.00;100811.19;5012466;28;20046;-79
2021/09/08 01:29:26;;;;;;;17.70;12.25;;;;;;;16.78;78.31;100807.00;5018732;28;20138;-79
2021/09/08 01:31:55;;;;;;;19.33;12.75;;;;;;;16.73;78.41;100803.75;5018472;28;20050;-79
2021/09/08 01:34:23;;;;;;;17.02;12.45;;;;;;;16.72;78.62;100805.56;5019680;28;20045;-79
2021/09/08 01:36:52;;;;;;;17.10;12.77;;;;;;;16.68;78.45;100801.41;5026589;28;20062;-78
2021/09/08 01:39:28;;;;;;;18.35;12.77;;;;;;;16.63;78.65;100797.31;5013228;28;20085;-79
2021/09/08 01:41:54;;;;;;;17.25;12.77;;;;;;;16.56;79.29;100799.50;5030228;28;20046;-79
2021/09/08 01:44:23;;;;;;;18.92;12.85;;;;;;;16.55;79.19;100799.59;5027681;28;20077;-80
2021/09/08 01:46:52;;;;;;;18.67;12.90;;;;;;;16.54;79.16;100800.53;5021110;28;20141;-79
2021/09/08 01:49:19;;;;;;;19.42;13.63;;;;;;;16.51;79.44;100796.28;5024176;28;20056;-79
2021/09/08 01:51:53;;;;;;;18.42;13.07;;;;;;;16.43;79.50;100788.75;5019517;28;20101;-80
2021/09/08 01:54:20;;;;;;;21.25;13.25;;;;;;;16.42;79.37;100792.38;5022263;28;20029;-79
2021/09/08 01:56:47;;;;;;;17.25;12.60;;;;;;;16.40;79.74;100791.59;5011974;28;20049;-79
2021/09/08 01:59:21;;;;;;;18.63;12.40;;;;;;;16.40;79.87;100788.06;5021604;28;20078;-79
2021/09/08 02:01:47;;;;;;;26.63;12.45;;;;;;;16.41;79.81;100787.97;5024391;28;20054;-79
2021/09/08 02:04:16;;;;;;;19.30;12.20;;;;;;;16.40;79.55;100775.56;5024315;28;20058;-79
2021/09/08 02:06:51;;;;;;;18.75;12.85;;;;;;;16.40;79.94;100772.91;5017419;28;20050;-79
2021/09/08 02:09:22;;;;;;;18.83;12.85;;;;;;;16.39;80.03;100781.88;5021755;28;20078;-79
2021/09/08 02:11:49;;;;;;;18.92;13.27;;;;;;;16.39;79.45;100784.53;5019935;28;20064;-79
2021/09/08 02:14:16;;;;;;;18.67;11.88;;;;;;;16.38;79.90;100780.16;5019102;28;20046;-79
2021/09/08 02:16:44;;;;;;;18.45;12.98;;;;;;;16.38;79.60;100779.28;5009468;28;20073;-79
2021/09/08 02:19:10;;;;;;;17.33;12.20;;;;;;;16.33;79.96;100771.59;5014101;28;20061;-79
2021/09/08 02:21:37;;;;;;;18.08;12.27;;;;;;;16.32;80.15;100772.56;5014575;28;20046;-79
2021/09/08 02:24:04;;;;;;;16.83;12.65;;;;;;;16.30;79.81;100773.59;5012692;28;20068;-79
2021/09/08 02:26:31;;;;;;;19.98;12.95;;;;;;;16.25;80.03;100763.19;5022380;28;20057;-79
2021/09/08 02:28:59;;;;;;;18.65;13.63;;;;;;;16.24;80.28;100771.31;5013351;28;20048;-79
2021/09/08 02:31:26;;;;;;;15.68;12.25;;;;;;;16.21;80.38;100769.72;5020846;28;20057;-80
2021/09/08 02:33:53;;;;;;;17.70;12.45;;;;;;;16.21;80.83;100772.41;4998626;28;20072;-79
2021/09/08 02:36:21;;;;;;;21.23;13.32;;;;;;;16.19;80.96;100768.97;5021156;28;20056;-80
2021/09/08 02:38:48;;;;;;;16.42;12.35;;;;;;;16.19;80.63;100766.28;5010968;28;20052;-79
2021/09/08 02:41:15;;;;;;;18.45;12.90;;;;;;;16.19;80.66;100765.44;5015325;28;20137;-80
2021/09/08 02:43:42;;;;;;;18.92;12.73;;;;;;;16.15;81.05;100767.44;5019447;28;20086;-80
2021/09/08 02:46:08;;;;;;;21.42;12.60;;;;;;;16.15;80.75;100767.44;5020503;28;20057;-80
2021/09/08 02:48:35;;;;;;;20.55;13.02;;;;;;;16.11;80.65;100760.56;5019521;28;20053;-80
2021/09/08 02:51:03;;;;;;;18.65;13.32;;;;;;;16.06;81.25;100762.66;5015071;28;20096;-80
2021/09/08 02:53:31;;;;;;;20.98;13.30;;;;;;;16.04;81.48;100761.94;5013480;28;20046;-80
2021/09/08 02:55:58;;;;;;;18.73;12.52;;;;;;;16.02;81.54;100767.38;5013181;28;20592;-80
2021/09/08 02:58:24;;;;;;;16.90;12.95;;;;;;;16.02;81.48;100758.50;5018302;28;20053;-80
2021/09/08 03:00:51;;;;;;;20.52;12.95;;;;;;;15.99;81.62;100762.22;4998469;28;20046;-80
2021/09/08 03:03:18;;;;;;;19.80;13.32;;;;;;;15.98;81.77;100752.47;5004719;28;20042;-80
2021/09/08 03:05:46;;;;;;;19.48;13.68;;;;;;;15.96;82.19;100754.38;5013186;28;20053;-80
2021/09/08 03:08:14;;;;;;;21.02;13.40;;;;;;;15.98;81.51;100754.28;5021388;28;20060;-80
2021/09/08 03:10:43;;;;;;;18.13;12.82;;;;;;;15.96;81.50;100753.53;5014105;28;20088;-80
2021/09/08 03:13:15;;;;;;;19.42;13.60;;;;;;;15.90;81.54;100751.28;5018685;28;20064;-80
2021/09/08 03:15:42;;;;;;;18.25;13.18;;;;;;;15.93;81.73;100751.03;5019048;28;20046;-80
2021/09/08 03:18:09;;;;;;;21.88;13.38;;;;;;;15.90;81.52;100752.09;5022435;28;20058;-80
2021/09/08 03:20:38;;;;;;;18.27;13.43;;;;;;;15.87;81.22;100751.47;5002207;28;20050;-80
2021/09/08 03:23:05;;;;;;;17.52;12.30;;;;;;;15.83;81.74;100749.94;5015158;28;20053;-80
2021/09/08 03:25:33;;;;;;;19.55;13.50;;;;;;;15.78;81.95;100740.38;5000721;28;20056;-80
2021/09/08 03:28:00;;;;;;;18.15;12.52;;;;;;;15.76;82.23;100742.28;5015357;28;20030;-80
2021/09/08 03:30:28;;;;;;;21.38;13.57;;;;;;;15.73;82.43;100741.66;5039504;28;20090;-80
2021/09/08 03:32:55;;;;;;;18.20;13.35;;;;;;;15.67;82.82;100742.03;5033418;28;20053;-80
2021/09/08 03:35:21;;;;;;;20.08;12.95;;;;;;;15.61;83.32;100735.25;5001637;28;20104;-80
2021/09/08 03:37:48;;;;;;;23.23;13.77;;;;;;;15.65;83.17;100741.25;5018321;28;20043;-80
2021/09/08 03:40:16;;;;;;;20.13;13.18;;;;;;;15.66;83.06;100742.97;5017221;28;20128;-80
2021/09/08 03:42:43;;;;;;;20.25;13.20;;;;;;;15.65;83.14;100742.13;5017432;28;20061;-80
2021/09/08 03:45:12;;;;;;;19.70;13.57;;;;;;;15.61;83.10;100739.72;5014642;28;20050;-80
2021/09/08 03:47:39;;;;;;;19.08;12.80;;;;;;;15.61;83.46;100737.06;5007242;28;20145;-80
2021/09/08 03:50:07;;;;;;;21.58;14.40;;;;;;;15.59;83.22;100736.28;4995262;28;20053;-80
2021/09/08 03:52:33;;;;;;;20.20;13.98;;;;;;;15.56;83.09;100737.34;5021961;28;20129;-80
2021/09/08 03:55:00;;;;;;;22.90;13.82;;;;;;;15.51;83.52;100731.41;5027075;28;20046;-80
2021/09/08 03:57:27;;;;;;;22.40;14.50;;;;;;;15.45;83.68;100729.09;5013351;28;20046;-80
2021/09/08 03:59:54;;;;;;;18.52;13.35;;;;;;;15.48;84.01;100739.59;5012919;28;20054;-81
2021/09/08 04:02:21;;;;;;;18.52;13.70;;;;;;;15.47;83.66;100729.00;4997866;28;20492;-80
2021/09/08 04:04:48;;;;;;;22.98;13.70;;;;;;;15.48;84.03;100730.72;5017925;28;20050;-80
2021/09/08 04:07:15;;;;;;;20.60;13.65;;;;;;;15.50;84.13;100737.69;5018719;28;20052;-80
2021/09/08 04:09:42;;;;;;;22.38;14.05;;;;;;;15.52;83.96;100738.47;5014564;28;20069;-81
2021/09/08 04:12:14;;;;;;;22.77;14.27;;;;;;;15.52;83.98;100737.59;5026555;28;20093;-81
2021/09/08 04:14:42;;;;;;;22.35;13.73;;;;;;;15.49;83.84;100733.31;5009168;28;20050;-80
2021/09/08 04:17:11;;;;;;;20.30;13.63;;;;;;;15.44;84.03;100735.41;5019399;28;20046;-80
2021/09/08 04:19:41;;;;;;;21.20;14.35;;;;;;;15.41;84.39;100738.28;5016240;28;20137;-80
2021/09/08 04:22:09;;;;;;;19.35;14.00;;;;;;;15.40;84.13;100731.22;5016041;28;20052;-79
2021/09/08 04:24:35;;;;;;;22.90;13.80;;;;;;;15.41;84.38;100736.47;5018916;28;20046;-79
2021/09/08 04:27:02;;;;;;;19.98;14.02;;;;;;;15.38;84.47;100733.13;5018512;28;20064;-79
2021/09/08 04:29:30;;;;;;;19.20;13.55;;;;;;;15.38;84.54;100735.78;5022661;28;20053;-79
2021/09/08 04:31:59;;;;;;;18.35;13.50;;;;;;;15.38;84.43;100733.13;5018324;28;20050;-79
2021/09/08 04:34:28;;;;;;;18.27;13.75;;;;;;;15.38;84.52;100733.13;5016153;28;20045;-79
2021/09/08 04:36:54;;;;;;;19.25;14.40;;;;;;;15.36;84.38;100735.88;5013298;28;20137;-79
2021/09/08 04:39:21;;;;;;;19.23;14.27;;;;;;;15.32;84.26;100730.81;5018861;28;20060;-79
2021/09/08 04:41:50;;;;;;;21.05;14.60;;;;;;;15.28;84.54;100723.94;5018735;28;20569;-79
2021/09/08 04:44:17;;;;;;;18.95;13.13;;;;;;;15.21;84.83;100720.81;4995287;28;20082;-80
2021/09/08 04:46:44;;;;;;;21.98;14.77;;;;;;;15.20;85.12;100723.56;5017481;28;20462;-80
2021/09/08 04:49:11;;;;;;;20.90;13.88;;;;;;;15.18;85.33;100725.47;4996591;28;20069;-80
2021/09/08 04:51:38;;;;;;;19.50;13.55;;;;;;;15.17;85.08;100721.09;5018955;28;20055;-80
2021/09/08 04:54:04;;;;;;;20.02;14.70;;;;;;;15.18;85.52;100725.47;5011939;28;20514;-80
2021/09/08 04:56:31;;;;;;;21.15;14.55;;;;;;;15.18;85.27;100730.81;5015950;28;20049;-80
2021/09/08 04:59:00;;;;;;;20.35;13.80;;;;;;;15.20;85.69;100726.25;5010504;28;20048;-81
2021/09/08 05:01:27;;;;;;;23.67;14.63;;;;;;;15.17;85.28;100723.75;5010372;28;20063;-81
2021/09/08 05:03:55;;;;;;;22.52;15.15;;;;;;;15.14;85.61;100723.94;5018911;28;20057;-80
2021/09/08 05:06:24;;;;;;;21.25;14.55;;;;;;;15.17;85.89;100724.59;5019024;28;20494;-81
2021/09/08 05:08:51;;;;;;;19.38;13.95;;;;;;;15.21;86.11;100726.16;5020853;28;20041;-81
2021/09/08 05:11:20;;;;;;;21.13;14.45;;;;;;;15.22;85.60;100727.00;5015965;28;20050;-81
2021/09/08 05:13:47;;;;;;;21.10;13.63;;;;;;;15.27;85.54;100730.22;5020614;28;20088;-81
2021/09/08 05:16:13;;;;;;;24.25;15.18;;;;;;;15.30;84.90;100730.03;5018450;28;20130;-81
2021/09/08 05:18:40;;;;;;;21.73;14.77;;;;;;;15.30;84.76;100738.06;5018618;28;20042;-81
2021/09/08 05:21:10;;;;;;;21.38;14.35;;;;;;;15.31;84.68;100734.44;5000719;28;20046;-80
2021/09/08 05:23:38;;;;;;;23.60;14.95;;;;;;;15.33;84.65;100733.41;5019239;28;20056;-82
2021/09/08 05:26:05;;;;;;;25.00;14.68;;;;;;;15.35;84.83;100733.31;5022589;28;20113;-82
2021/09/08 05:28:32;;;;;;;22.23;14.10;;;;;;;15.38;84.58;100735.78;5018976;28;20045;-81
2021/09/08 05:30:59;;;;;;;22.35;13.85;;;;;;;15.40;84.46;100731.22;5020099;28;20057;-82
2021/09/08 05:33:26;;;;;;;19.35;14.23;;;;;;;15.43;84.67;100737.19;5036864;28;20038;-81
2021/09/08 05:35:52;;;;;;;23.40;14.70;;;;;;;15.47;84.54;100727.19;5029480;28;20052;-81
2021/09/08 05:38:20;;;;;;;25.95;14.63;;;;;;;15.49;84.12;100727.13;5018201;28;20060;-81
2021/09/08 05:40:49;;;;;;;26.20;14.85;;;;;;;15.54;84.62;100735.69;5014515;28;20711;-81
2021/09/08 05:43:16;;;;;;;19.63;13.75;;;;;;;15.57;84.42;100732.88;5020441;28;20048;-80
2021/09/08 05:45:43;;;;;;;23.85;14.57;;;;;;;15.62;84.11;100736.09;5011159;28;20094;-83
2021/09/08 05:48:10;;;;;;;20.45;14.50;;;;;;;15.66;83.73;100726.94;5007631;28;20042;-82
2021/09/08 05:50:37;;;;;;;22.48;15.20;;;;;;;15.69;83.29;100730.28;5023115;28;20053;-82
2021/09/08 05:53:04;;;;;;;22.15;14.55;;;;;;;15.73;83.53;100731.81;5025865;28;20043;-83
2021/09/08 05:55:31;;;;;;;22.67;14.65;;;;;;;15.74;83.36;100730.84;5026152;28;20085;-82
2021/09/08 05:57:58;;;;;;;24.05;15.13;;;;;;;15.77;83.23;100732.47;5017922;28;20053;-81
2021/09/08 06:00:29;;;;;;;22.33;14.90;;;;;;;15.79;82.83;100742.09;5036269;28;20046;-81
2021/09/08 06:03:00;;;;;;;25.85;15.02;;;;;;;15.84;82.28;100730.28;5032787;28;20050;-82
2021/09/08 06:05:27;;;;;;;21.50;14.80;;;;;;;15.87;82.33;100735.44;5018496;28;20208;-82
2021/09/08 06:07:54;;;;;;;22.10;14.43;;;;;;;15.92;82.57;100738.66;5016688;28;20039;-82
2021/09/08 06:10:21;;;;;;;22.25;14.38;;;;;;;15.98;82.54;100728.44;5021297;28;20105;-82
2021/09/08 06:12:48;;;;;;;20.27;13.55;;;;;;;16.06;82.21;100738.63;5022916;28;20149;-81
2021/09/08 06:15:17;;;;;;;19.05;13.55;;;;;;;16.13;82.01;100731.94;5028751;28;20117;-80
2021/09/08 06:17:43;;;;;;;19.52;14.10;;;;;;;16.23;81.75;100732.19;5032236;28;20104;-82
2021/09/08 06:20:12;;;;;;;22.55;14.23;;;;;;;16.34;80.92;100740.38;5022133;28;20044;-82
2021/09/08 06:22:39;;;;;;;21.33;14.15;;;;;;;16.42;79.03;100728.22;5038510;28;20113;-82
2021/09/08 06:25:14;;;;;;;21.88;14.45;;;;;;;16.54;79.08;100742.59;5025053;28;20058;-82
2021/09/08 06:27:41;;;;;;;21.42;13.90;;;;;;;16.61;79.06;100733.22;5020055;28;20046;-82
2021/09/08 06:30:09;;;;;;;22.23;15.18;;;;;;;16.69;77.93;100728.22;5018395;28;20133;-83
2021/09/08 06:32:35;;;;;;;20.17;14.07;;;;;;;16.76;77.89;100734.03;5014415;28;20114;-83
2021/09/08 06:35:02;;;;;;;26.60;13.80;;;;;;;16.85;77.08;100730.72;5017979;28;20083;-83
2021/09/08 06:37:30;;;;;;;22.67;13.60;;;;;;;17.02;76.65;100740.28;5017228;28;20432;-83
2021/09/08 06:39:56;;;;;;;22.83;14.25;;;;;;;17.18;75.75;100732.91;5002675;28;20049;-80
2021/09/08 06:42:23;;;;;;;20.70;14.18;;;;;;;17.42;75.08;100733.06;5021416;28;20048;-80
2021/09/08 06:44:54;;;;;;;21.50;13.40;;;;;;;17.74;73.69;100723.63;5024564;28;20050;-81
2021/09/08 06:47:23;;;;;;;20.17;14.23;;;;;;;18.02;71.27;100719.81;4994219;28;20658;-80
2021/09/08 06:49:51;;;;;;;19.90;14.03;;;;;;;18.34;70.32;100732.69;5029382;28;20121;-80
2021/09/08 06:52:19;;;;;;;21.25;13.48;;;;;;;18.64;70.03;100733.09;5009197;28;20052;-80
2021/09/08 06:54:47;;;;;;;21.30;13.63;;;;;;;18.92;68.41;100722.00;5004333;28;20124;-80
2021/09/08 06:57:16;;;;;;;21.30;13.45;;;;;;;19.13;67.55;100716.81;5017666;28;20056;-80
2021/09/08 06:59:44;;;;;;;20.20;12.90;;;;;;;19.34;66.68;100721.50;5026088;28;20056;-80
2021/09/08 07:02:11;;;;;;;19.23;12.45;;;;;;;19.51;67.31;100715.69;5021936;28;20383;-80
2021/09/08 07:04:39;;;;;;;20.20;12.65;;;;;;;19.75;65.47;100718.22;5022438;28;20056;-79
2021/09/08 07:07:06;;;;;;;18.38;13.30;;;;;;;19.81;63.76;100726.66;5026330;28;20046;-80
2021/09/08 07:09:33;;;;;;;21.52;13.07;;;;;;;19.85;63.56;100717.34;5022086;28;20140;-80
2021/09/08 07:12:00;;;;;;;20.00;13.15;;;;;;;19.80;63.55;100711.53;5024698;28;20073;-79
2021/09/08 07:14:27;;;;;;;18.13;13.05;;;;;;;19.83;64.68;100707.75;5017573;28;20049;-79
2021/09/08 07:16:54;;;;;;;18.60;12.50;;;;;;;19.99;65.65;100715.41;5025565;28;20080;-79
2021/09/08 07:19:20;;;;;;;20.77;12.90;;;;;;;20.12;63.55;100708.06;5021721;28;20056;-79
2021/09/08 07:21:48;;;;;;;18.15;12.45;;;;;;;20.31;63.07;100719.00;5031354;28;20094;-79
2021/09/08 07:24:15;;;;;;;15.20;11.88;;;;;;;20.41;63.36;100711.06;5035334;28;20088;-79
2021/09/08 07:26:43;;;;;;;19.98;12.82;;;;;;;20.56;62.38;100718.72;5015419;28;20114;-80
2021/09/08 07:29:10;;;;;;;19.17;12.18;;;;;;;20.61;62.42;100711.13;5010170;28;20065;-80
2021/09/08 07:31:37;;;;;;;20.70;12.13;;;;;;;20.58;61.43;100714.06;5024776;28;20043;-79
2021/09/08 07:34:04;;;;;;;16.45;12.55;;;;;;;20.49;60.83;100712.13;5039847;28;20143;-81
2021/09/08 07:36:30;;;;;;;20.98;12.82;;;;;;;20.45;60.82;100712.53;5007196;28;20073;-82
2021/09/08 07:38:57;;;;;;;19.88;12.38;;;;;;;20.46;60.79;100712.38;5017849;28;20046;-81
2021/09/08 07:41:24;;;;;;;19.67;12.38;;;;;;;20.48;60.91;100713.09;5019198;28;20749;-81
2021/09/08 07:43:52;;;;;;;18.38;12.20;;;;;;;20.54;61.31;100709.06;5025756;28;20057;-80
2021/09/08 07:46:20;;;;;;;17.48;12.63;;;;;;;20.53;60.69;100710.91;5017204;28;20058;-80
2021/09/08 07:48:47;;;;;;;19.75;12.88;;;;;;;20.43;60.76;100712.66;5017953;28;20150;-80
2021/09/08 07:51:17;;;;;;;22.55;12.25;;;;;;;20.35;61.19;100708.84;5019988;28;20089;-81
2021/09/08 07:53:48;;;;;;;18.35;12.98;;;;;;;20.41;62.14;100706.53;5027506;28;20056;-80
2021/09/08 07:56:15;;;;;;;;;;;;;;;20.53;62.28;100710.03;5022155;28;20117;-80
2021/09/08 07:58:42;;;;;;;19.23;12.38;;;;;;;20.62;61.63;100706.56;5018096;28;20020;-79
2021/09/08 08:01:09;;;;;;;18.23;11.93;;;;;;;20.67;61.89;100707.91;5024600;28;20074;-79
2021/09/08 08:03:40;;;;;;;16.85;12.00;;;;;;;20.60;60.20;100693.25;5012748;28;20110;-80
2021/09/08 08:06:07;;;;;;;;;;;;;;;20.57;59.94;100703.44;5032843;28;20041;-79
2021/09/08 08:08:34;;;;;;;17.20;12.27;;;;;;;20.43;61.19;100692.97;5033651;28;19979;-80
2021/09/08 08:11:04;;;;;;;;;;;;;;;20.38;61.92;100698.72;5034495;28;20042;-80
2021/09/08 08:13:32;;;;;;;17.95;13.13;;;;;;;20.42;60.86;100699.31;5033088;28;19909;-79
2021/09/08 08:15:58;;;;;;;18.60;12.50;;;;;;;20.49;61.73;100701.34;5020570;28;20056;-79
2021/09/08 08:18:26;;;;;;;16.23;11.65;;;;;;;20.61;61.48;100697.66;5013864;28;20073;-79
2021/09/08 08:20:53;;;;;;;19.90;13.02;;;;;;;20.74;60.87;100708.25;5026592;28;20114;-79
2021/09/08 08:23:19;;;;;;;18.13;12.98;;;;;;;20.73;60.85;100705.69;5034226;28;20064;-79
2021/09/08 08:25:46;;;;;;;17.75;12.60;;;;;;;20.78;60.50;100703.47;5033924;28;20106;-79
2021/09/08 08:28:13;;;;;;;21.42;12.05;;;;;;;20.81;60.73;100700.50;5031465;28;20046;-80
2021/09/08 08:30:42;;;;;;;18.55;12.30;;;;;;;20.85;59.48;100701.94;5033557;28;20054;-79
2021/09/08 08:33:09;;;;;;;16.85;12.48;;;;;;;20.87;58.99;100694.59;5023680;28;20404;-80
2021/09/08 08:35:36;;;;;;;17.80;12.02;;;;;;;20.92;60.17;100695.06;5020651;28;20100;-80
2021/09/08 08:38:03;;;;;;;20.15;11.90;;;;;;;21.00;59.93;100682.66;5019453;28;20056;-80
2021/09/08 08:40:31;;;;;;;19.15;12.00;;;;;;;21.11;59.58;100683.53;5018749;28;20050;-79
2021/09/08 08:43:00;;;;;;;15.88;12.05;;;;;;;21.22;59.40;100684.38;5021002;28;20042;-81
2021/09/08 08:45:28;;;;;;;18.58;11.27;;;;;;;21.35;59.33;100681.47;5002754;28;20046;-80
2021/09/08 08:47:59;;;;;;;16.73;12.48;;;;;;;21.40;58.62;100678.38;5016860;28;20055;-81
2021/09/08 08:50:26;;;;;;;16.20;12.05;;;;;;;21.29;59.13;100677.47;5016170;28;20046;-80
2021/09/08 08:52:56;;;;;;;18.55;12.80;;;;;;;21.21;59.07;100679.97;5020013;28;20081;-81
2021/09/08 08:55:25;;;;;;;18.75;12.93;;;;;;;21.13;59.42;100671.66;5016114;28;20633;-80
2021/09/08 08:57:52;;;;;;;17.52;12.65;;;;;;;21.05;59.69;100676.88;5014925;28;20052;-80
2021/09/08 09:00:21;;;;;;;19.60;12.77;;;;;;;20.97;60.04;100664.06;5012378;28;20068;-80
2021/09/08 09:02:53;;;;;;;18.70;13.70;;;;;;;21.06;59.87;100680.41;5018232;28;20071;-80
2021/09/08 09:05:47;;;;;;;19.60;13.20;;;;;;;21.05;60.05;100668.78;5009706;28;20054;-80
2021/09/08 09:08:16;;;;;;;17.73;12.05;;;;;;;21.02;60.57;100660.97;5015513;28;20492;-79
2021/09/08 09:10:43;;;;;;;20.00;12.75;;;;;;;21.06;60.21;100667.81;5018878;28;20429;-80
2021/09/08 09:13:10;;;;;;;19.55;12.27;;;;;;;21.07;59.39;100669.53;5016346;28;20050;-80
2021/09/08 09:15:37;;;;;;;17.13;12.80;;;;;;;21.09;59.02;100659.47;5005718;28;20053;-80
2021/09/08 09:18:04;;;;;;;17.95;12.15;;;;;;;21.17;59.09;100656.09;5016168;28;20053;-80
2021/09/08 09:20:32;;;;;;;16.17;11.45;;;;;;;21.24;59.16;100658.16;5003891;28;20065;-80
2021/09/08 09:23:01;;;;;;;17.92;12.75;;;;;;;21.35;59.18;100655.38;5015290;28;20173;-80
2021/09/08 09:25:35;;;;;;;18.27;12.43;;;;;;;21.41;58.29;100648.59;5012373;28;20054;-80
2021/09/08 09:28:05;;;;;;;15.57;11.93;;;;;;;21.49;58.58;100653.31;5017387;28;20453;-80
2021/09/08 09:30:41;;;;;;;19.33;12.13;;;;;;;21.60;57.38;100645.13;5007446;28;20135;-80
2021/09/08 09:33:31;;;;;;;16.55;12.15;;;;;;;21.73;57.31;100647.56;5004292;28;20046;-79
2021/09/08 09:36:14;;;;;;;15.65;11.35;;;;;;;21.80;58.25;100641.50;4999893;28;20054;-80
2021/09/08 09:38:48;;;;;;;16.00;11.85;;;;;;;21.95;57.25;100633.88;5009127;28;20038;-80
2021/09/08 09:41:21;;;;;;;16.98;12.13;;;;;;;22.02;55.73;100629.66;5021634;28;20060;-80
2021/09/08 09:43:47;;;;;;;15.88;10.93;;;;;;;22.05;55.36;100632.91;4992598;28;20060;-80
2021/09/08 09:46:14;;;;;;;17.58;12.15;;;;;;;22.12;56.18;100635.06;5016516;28;20424;-81
2021/09/08 09:48:51;;;;;;;14.82;11.95;;;;;;;22.17;55.48;100628.25;5015781;28;20060;-80
2021/09/08 09:51:20;;;;;;;16.92;11.77;;;;;;;22.20;55.31;100627.09;5017119;28;20365;-80
2021/09/08 09:53:48;;;;;;;17.38;11.90;;;;;;;22.24;55.43;100634.78;5004004;28;20082;-80
2021/09/08 09:56:15;;;;;;;19.50;11.98;;;;;;;22.28;55.86;100628.13;5011133;28;20050;-81
2021/09/08 09:58:42;;;;;;;15.10;11.77;;;;;;;22.42;54.18;100626.84;5003673;28;20050;-80
2021/09/08 10:01:10;;;;;;;13.48;11.43;;;;;;;22.53;54.22;100613.19;4989574;28;20064;-81
2021/09/08 10:03:37;;;;;;;15.60;11.52;;;;;;;22.65;52.94;100617.47;5019096;28;20069;-80
2021/09/08 10:06:04;;;;;;;15.82;11.50;;;;;;;22.67;53.54;100615.44;5016527;28;20054;-80
2021/09/08 10:08:34;;;;;;;15.95;11.13;;;;;;;22.80;53.23;100608.94;5019105;28;20301;-80
2021/09/08 10:11:05;;;;;;;19.02;11.75;;;;;;;22.88;52.70;100604.50;5020224;28;20065;-80
2021/09/08 10:13:40;;;;;;;16.20;11.15;;;;;;;22.99;52.02;100608.88;5020611;28;20569;-80
2021/09/08 10:16:07;;;;;;;14.43;10.27;;;;;;;23.08;51.72;100595.34;5019637;28;20085;-81
2021/09/08 10:18:35;;;;;;;14.48;11.00;;;;;;;23.25;50.62;100593.72;5017612;28;20109;-81
2021/09/08 10:21:07;;;;;;;15.90;11.52;;;;;;;23.28;50.61;100596.13;5013676;28;20061;-80
2021/09/08 10:23:39;;;;;;;16.08;11.25;;;;;;;23.33;51.23;100591.13;5017071;28;20054;-80
2021/09/08 10:26:12;;;;;;;13.27;10.60;;;;;;;23.41;50.70;100576.88;5019031;28;20064;-81
2021/09/08 10:28:41;;;;;;;15.88;11.50;;;;;;;23.44;50.30;100580.13;5016714;28;20484;-81
2021/09/08 10:31:09;;;;;;;17.88;11.68;;;;;;;23.41;50.17;100572.31;5014324;28;20541;-80
2021/09/08 10:33:38;;;;;;;15.73;11.02;;;;;;;23.49;50.08;100574.25;5010163;28;20097;-80
2021/09/08 10:36:05;;;;;;;16.38;10.73;;;;;;;23.54;50.02;100563.03;5017493;28;20056;-81
2021/09/08 10:38:32;;;;;;;17.17;9.82;;;;;;;23.55;50.60;100556.63;5017670;28;20056;-81
2021/09/08 10:41:03;;;;;;;14.50;10.05;;;;;;;23.71;50.71;100562.22;5005729;28;20056;-81
2021/09/08 10:43:34;;;;;;;16.77;11.80;;;;;;;23.74;49.98;100556.50;5014680;28;20053;-81
2021/09/08 10:46:06;;;;;;;16.90;11.55;;;;;;;23.82;50.19;100556.59;5017500;28;20058;-81
2021/09/08 10:48:37;;;;;;;16.23;11.30;;;;;;;23.86;50.08;100555.28;5020062;28;20050;-80
2021/09/08 10:51:10;;;;;;;16.73;11.18;;;;;;;23.98;49.39;100548.63;5017879;28;20050;-81
2021/09/08 10:53:38;;;;;;;15.85;11.98;;;;;;;24.00;49.44;100538.50;5020379;28;20042;-81
2021/09/08 10:56:07;;;;;;;13.68;11.32;;;;;;;24.06;49.22;100529.78;4998723;28;20046;-81
2021/09/08 11:02:02;;;;;;;19.63;11.75;;;;;;;24.36;48.02;100535.81;5014687;28;20069;-86
2021/09/08 11:04:35;;;;;;;13.73;10.60;;;;;;;24.39;48.14;100528.25;5013847;28;20046;-83
2021/09/08 11:07:03;;;;;;;14.45;11.38;;;;;;;24.47;47.56;100531.00;5020553;28;20046;-82
2021/09/08 11:09:30;;;;;;;16.33;10.93;;;;;;;24.45;46.88;100535.72;5018034;28;20064;-83
2021/09/08 11:11:58;;;;;;;28.90;11.23;;;;;;;24.50;47.65;100520.84;5026194;28;20069;-80
2021/09/08 11:14:51;;;;;;;16.38;11.18;;;;;;;24.59;47.69;100520.75;5026810;28;20076;-83
2021/09/08 11:17:27;;;;;;;14.20;10.38;;;;;;;24.71;48.60;100514.03;5017662;28;20398;-83